sensor_id;sensor_type;location;lat;lon;timestamp;pressure;altitude;pressure_sealevel;temperature;humidity
22651;BME280;11492;42.646;23.400;2023-07-09T00:02:17;95420.88;;;20.91;50.89
22651;BME280;11492;42.646;23.400;2023-07-09T00:04:43;95418.78;;;20.93;50.89
22651;BME280;11492;42.646;23.400;2023-07-09T00:07:29;95411.97;;;20.92;50.98
22651;BME280;11492;42.646;23.400;2023-07-09T00:09:55;95417.41;;;20.90;50.66
22651;BME280;11492;42.646;23.400;2023-07-09T00:12:22;95410.25;;;20.86;50.14
22651;BME280;11492;42.646;23.400;2023-07-09T00:14:47;95407.38;;;20.87;50.52
22651;BME280;11492;42.646;23.400;2023-07-09T00:17:26;95408.84;;;20.95;50.59
22651;BME280;11492;42.646;23.400;2023-07-09T00:19:52;95406.13;;;20.90;50.65
22651;BME280;11492;42.646;23.400;2023-07-09T00:22:18;95404.41;;;20.95;50.18
22651;BME280;11492;42.646;23.400;2023-07-09T00:24:49;95398.25;;;20.90;50.21
22651;BME280;11492;42.646;23.400;2023-07-09T00:27:20;95402.00;;;20.94;49.71
22651;BME280;11492;42.646;23.400;2023-07-09T00:29:47;95400.97;;;20.95;49.80
22651;BME280;11492;42.646;23.400;2023-07-09T00:32:17;95403.63;;;20.83;50.13
22651;BME280;11492;42.646;23.400;2023-07-09T00:34:46;95396.78;;;20.82;49.78
22651;BME280;11492;42.646;23.400;2023-07-09T00:37:15;95399.75;;;20.86;50.19
22651;BME280;11492;42.646;23.400;2023-07-09T00:39:41;95395.72;;;20.95;50.76
22651;BME280;11492;42.646;23.400;2023-07-09T00:42:14;95395.63;;;20.78;50.11
22651;BME280;11492;42.646;23.400;2023-07-09T00:44:44;95394.41;;;20.81;50.00
22651;BME280;11492;42.646;23.400;2023-07-09T00:47:39;95390.25;;;20.85;50.01
22651;BME280;11492;42.646;23.400;2023-07-09T00:50:25;95395.09;;;20.76;50.62
22651;BME280;11492;42.646;23.400;2023-07-09T00:52:59;95391.28;;;20.84;49.91
22651;BME280;11492;42.646;23.400;2023-07-09T00:55:30;95395.84;;;20.88;50.03
22651;BME280;11492;42.646;23.400;2023-07-09T00:58:01;95391.16;;;20.90;50.31
22651;BME280;11492;42.646;23.400;2023-07-09T01:00:32;95393.91;;;20.84;50.56
22651;BME280;11492;42.646;23.400;2023-07-09T01:03:02;95391.97;;;20.79;50.30
22651;BME280;11492;42.646;23.400;2023-07-09T01:05:29;95388.91;;;20.82;50.77
22651;BME280;11492;42.646;23.400;2023-07-09T01:07:55;95391.88;;;20.86;51.53
22651;BME280;11492;42.646;23.400;2023-07-09T01:10:23;95391.78;;;20.81;52.45
22651;BME280;11492;42.646;23.400;2023-07-09T01:12:49;95393.69;;;20.74;52.26
22651;BME280;11492;42.646;23.400;2023-07-09T01:15:16;95398.84;;;20.69;53.02
22651;BME280;11492;42.646;23.400;2023-07-09T01:17:41;95399.22;;;20.61;52.14
22651;BME280;11492;42.646;23.400;2023-07-09T01:20:15;95389.63;;;20.67;52.62
22651;BME280;11492;42.646;23.400;2023-07-09T01:22:41;95393.97;;;20.61;53.79
22651;BME280;11492;42.646;23.400;2023-07-09T01:25:07;95390.88;;;20.53;53.94
22651;BME280;11492;42.646;23.400;2023-07-09T01:27:42;95388.94;;;20.48;53.58
22651;BME280;11492;42.646;23.400;2023-07-09T01:30:57;95390.50;;;20.38;53.92
22651;BME280;11492;42.646;23.400;2023-07-09T01:33:00;95383.22;;;20.29;54.98
22651;BME280;11492;42.646;23.400;2023-07-09T01:35:28;95384.56;;;20.20;55.48
22651;BME280;11492;42.646;23.400;2023-07-09T01:37:54;95388.44;;;20.06;56.10
22651;BME280;11492;42.646;23.400;2023-07-09T01:40:21;95387.75;;;19.99;56.88
22651;BME280;11492;42.646;23.400;2023-07-09T01:42:48;95398.34;;;19.93;56.88
22651;BME280;11492;42.646;23.400;2023-07-09T01:45:14;95395.69;;;19.82;57.31
22651;BME280;11492;42.646;23.400;2023-07-09T01:47:40;95400.22;;;19.75;58.04
22651;BME280;11492;42.646;23.400;2023-07-09T01:50:07;95408.84;;;19.64;58.22
22651;BME280;11492;42.646;23.400;2023-07-09T01:52:33;95405.38;;;19.52;58.68
22651;BME280;11492;42.646;23.400;2023-07-09T01:54:59;95410.72;;;19.46;59.46
22651;BME280;11492;42.646;23.400;2023-07-09T01:57:29;95410.50;;;19.30;59.23
22651;BME280;11492;42.646;23.400;2023-07-09T01:59:59;95415.78;;;19.12;59.58
22651;BME280;11492;42.646;23.400;2023-07-09T02:02:26;95412.31;;;19.00;59.39
22651;BME280;11492;42.646;23.400;2023-07-09T02:04:53;95409.41;;;18.91;59.90
22651;BME280;11492;42.646;23.400;2023-07-09T02:07:21;95415.69;;;18.83;59.96
22651;BME280;11492;42.646;23.400;2023-07-09T02:09:47;95411.34;;;18.77;61.08
22651;BME280;11492;42.646;23.400;2023-07-09T02:12:14;95407.63;;;18.67;61.20
22651;BME280;11492;42.646;23.400;2023-07-09T02:14:40;95409.00;;;18.52;62.02
22651;BME280;11492;42.646;23.400;2023-07-09T02:17:06;95412.28;;;18.48;62.50
22651;BME280;11492;42.646;23.400;2023-07-09T02:19:32;95420.09;;;18.30;63.26
22651;BME280;11492;42.646;23.400;2023-07-09T02:21:58;95413.69;;;18.26;63.43
22651;BME280;11492;42.646;23.400;2023-07-09T02:24:24;95423.19;;;18.21;63.13
22651;BME280;11492;42.646;23.400;2023-07-09T02:26:54;95413.81;;;18.13;63.91
22651;BME280;11492;42.646;23.400;2023-07-09T02:29:19;95427.28;;;18.10;64.58
22651;BME280;11492;42.646;23.400;2023-07-09T02:31:45;95430.50;;;18.12;64.79
22651;BME280;11492;42.646;23.400;2023-07-09T02:34:11;95439.78;;;18.08;65.35
22651;BME280;11492;42.646;23.400;2023-07-09T02:36:36;95431.38;;;18.06;65.85
22651;BME280;11492;42.646;23.400;2023-07-09T02:39:02;95437.56;;;18.12;65.67
22651;BME280;11492;42.646;23.400;2023-07-09T02:41:27;95441.22;;;18.04;65.65
22651;BME280;11492;42.646;23.400;2023-07-09T02:43:53;95440.47;;;17.98;66.20
22651;BME280;11492;42.646;23.400;2023-07-09T02:46:18;95440.06;;;17.94;66.29
22651;BME280;11492;42.646;23.400;2023-07-09T02:48:44;95443.53;;;17.88;66.97
22651;BME280;11492;42.646;23.400;2023-07-09T02:51:09;95447.22;;;17.81;67.33
22651;BME280;11492;42.646;23.400;2023-07-09T02:53:35;95453.53;;;17.67;67.95
22651;BME280;11492;42.646;23.400;2023-07-09T02:56:00;95454.09;;;17.69;67.88
22651;BME280;11492;42.646;23.400;2023-07-09T02:58:25;95453.53;;;17.67;67.34
22651;BME280;11492;42.646;23.400;2023-07-09T03:00:51;95449.53;;;17.58;67.77
22651;BME280;11492;42.646;23.400;2023-07-09T03:03:20;95451.41;;;17.51;67.61
22651;BME280;11492;42.646;23.400;2023-07-09T03:05:46;95462.88;;;17.50;67.06
22651;BME280;11492;42.646;23.400;2023-07-09T03:08:12;95456.28;;;17.42;67.19
22651;BME280;11492;42.646;23.400;2023-07-09T03:10:37;95463.53;;;17.40;66.11
22651;BME280;11492;42.646;23.400;2023-07-09T03:13:03;95461.31;;;17.37;66.24
22651;BME280;11492;42.646;23.400;2023-07-09T03:15:28;95471.75;;;17.37;66.02
22651;BME280;11492;42.646;23.400;2023-07-09T03:17:54;95465.00;;;17.29;65.54
22651;BME280;11492;42.646;23.400;2023-07-09T03:20:19;95467.19;;;17.26;66.39
22651;BME280;11492;42.646;23.400;2023-07-09T03:22:45;95472.38;;;17.32;66.14
22651;BME280;11492;42.646;23.400;2023-07-09T03:25:10;95458.53;;;17.32;65.90
22651;BME280;11492;42.646;23.400;2023-07-09T03:27:36;95470.56;;;17.33;65.98
22651;BME280;11492;42.646;23.400;2023-07-09T03:30:01;95462.97;;;17.31;65.38
22651;BME280;11492;42.646;23.400;2023-07-09T03:32:27;95468.13;;;17.38;65.46
22651;BME280;11492;42.646;23.400;2023-07-09T03:34:52;95471.38;;;17.40;65.70
22651;BME280;11492;42.646;23.400;2023-07-09T03:37:18;95459.72;;;17.36;65.47
22651;BME280;11492;42.646;23.400;2023-07-09T03:39:45;95458.94;;;17.35;65.35
22651;BME280;11492;42.646;23.400;2023-07-09T03:42:11;95454.50;;;17.36;64.91
22651;BME280;11492;42.646;23.400;2023-07-09T03:44:36;95471.09;;;17.47;64.94
22651;BME280;11492;42.646;23.400;2023-07-09T03:47:02;95460.09;;;17.46;64.99
22651;BME280;11492;42.646;23.400;2023-07-09T03:49:27;95470.09;;;17.55;64.78
22651;BME280;11492;42.646;23.400;2023-07-09T03:51:53;95471.94;;;17.42;64.67
22651;BME280;11492;42.646;23.400;2023-07-09T03:54:18;95473.94;;;17.46;65.19
22651;BME280;11492;42.646;23.400;2023-07-09T03:56:43;95466.97;;;17.34;64.95
22651;BME280;11492;42.646;23.400;2023-07-09T03:59:10;95471.66;;;17.19;65.35
22651;BME280;11492;42.646;23.400;2023-07-09T04:01:36;95468.63;;;17.22;65.77
22651;BME280;11492;42.646;23.400;2023-07-09T04:04:02;95475.44;;;17.23;66.06
22651;BME280;11492;42.646;23.400;2023-07-09T04:06:28;95472.59;;;17.31;66.09
22651;BME280;11492;42.646;23.400;2023-07-09T04:08:53;95483.00;;;17.37;65.48
22651;BME280;11492;42.646;23.400;2023-07-09T04:11:19;95478.53;;;17.50;65.84
22651;BME280;11492;42.646;23.400;2023-07-09T04:13:44;95470.88;;;17.55;65.18
22651;BME280;11492;42.646;23.400;2023-07-09T04:16:10;95469.66;;;17.58;65.24
22651;BME280;11492;42.646;23.400;2023-07-09T04:18:35;95485.44;;;17.69;65.06
22651;BME280;11492;42.646;23.400;2023-07-09T04:21:01;95489.59;;;17.83;65.10
22651;BME280;11492;42.646;23.400;2023-07-09T04:23:26;95491.59;;;17.87;65.71
22651;BME280;11492;42.646;23.400;2023-07-09T04:25:52;95488.91;;;17.94;65.13
22651;BME280;11492;42.646;23.400;2023-07-09T04:28:17;95479.47;;;17.93;65.53
22651;BME280;11492;42.646;23.400;2023-07-09T04:30:50;95499.97;;;18.02;65.08
22651;BME280;11492;42.646;23.400;2023-07-09T04:33:17;95499.28;;;18.13;64.88
22651;BME280;11492;42.646;23.400;2023-07-09T04:35:45;95496.63;;;18.19;65.57
22651;BME280;11492;42.646;23.400;2023-07-09T04:38:10;95503.75;;;18.30;65.00
22651;BME280;11492;42.646;23.400;2023-07-09T04:40:36;95505.53;;;18.36;65.08
22651;BME280;11492;42.646;23.400;2023-07-09T04:43:01;95496.25;;;18.40;65.75
22651;BME280;11492;42.646;23.400;2023-07-09T04:45:27;95502.81;;;18.48;64.94
22651;BME280;11492;42.646;23.400;2023-07-09T04:47:53;95507.19;;;18.54;65.07
22651;BME280;11492;42.646;23.400;2023-07-09T04:50:19;95491.28;;;18.56;65.16
22651;BME280;11492;42.646;23.400;2023-07-09T04:52:44;95504.28;;;18.62;65.79
22651;BME280;11492;42.646;23.400;2023-07-09T04:55:09;95501.66;;;18.62;66.61
22651;BME280;11492;42.646;23.400;2023-07-09T04:57:36;95507.06;;;18.67;66.07
22651;BME280;11492;42.646;23.400;2023-07-09T05:00:03;95502.13;;;18.77;65.67
22651;BME280;11492;42.646;23.400;2023-07-09T05:02:30;95503.72;;;18.84;65.57
22651;BME280;11492;42.646;23.400;2023-07-09T05:04:55;95498.56;;;18.96;65.17
22651;BME280;11492;42.646;23.400;2023-07-09T05:07:21;95504.53;;;19.02;65.14
22651;BME280;11492;42.646;23.400;2023-07-09T05:09:46;95498.88;;;19.05;64.87
22651;BME280;11492;42.646;23.400;2023-07-09T05:12:12;95506.66;;;19.12;65.22
22651;BME280;11492;42.646;23.400;2023-07-09T05:14:39;95501.97;;;19.14;64.85
22651;BME280;11492;42.646;23.400;2023-07-09T05:17:05;95501.06;;;19.26;64.80
22651;BME280;11492;42.646;23.400;2023-07-09T05:19:31;95507.38;;;19.36;64.81
22651;BME280;11492;42.646;23.400;2023-07-09T05:21:57;95509.91;;;19.43;64.44
22651;BME280;11492;42.646;23.400;2023-07-09T05:24:22;95506.41;;;19.48;63.76
22651;BME280;11492;42.646;23.400;2023-07-09T05:26:48;95509.88;;;19.60;63.51
22651;BME280;11492;42.646;23.400;2023-07-09T05:29:13;95509.00;;;19.66;63.34
22651;BME280;11492;42.646;23.400;2023-07-09T05:31:39;95506.81;;;19.81;63.47
22651;BME280;11492;42.646;23.400;2023-07-09T05:34:04;95509.69;;;19.91;63.44
22651;BME280;11492;42.646;23.400;2023-07-09T05:36:30;95505.75;;;19.99;62.42
22651;BME280;11492;42.646;23.400;2023-07-09T05:38:56;95504.63;;;20.07;62.83
22651;BME280;11492;42.646;23.400;2023-07-09T05:41:21;95502.63;;;20.20;63.05
22651;BME280;11492;42.646;23.400;2023-07-09T05:43:49;95501.19;;;20.35;61.96
22651;BME280;11492;42.646;23.400;2023-07-09T05:46:15;95508.41;;;20.51;61.37
22651;BME280;11492;42.646;23.400;2023-07-09T05:48:40;95504.09;;;20.68;60.80
22651;BME280;11492;42.646;23.400;2023-07-09T05:51:06;95493.72;;;20.73;60.97
22651;BME280;11492;42.646;23.400;2023-07-09T05:53:31;95489.72;;;20.81;60.25
22651;BME280;11492;42.646;23.400;2023-07-09T05:55:59;95486.59;;;20.96;60.49
22651;BME280;11492;42.646;23.400;2023-07-09T05:58:25;95497.81;;;21.14;60.55
22651;BME280;11492;42.646;23.400;2023-07-09T06:00:51;95498.69;;;21.19;59.14
22651;BME280;11492;42.646;23.400;2023-07-09T06:03:23;95494.72;;;21.17;58.00
22651;BME280;11492;42.646;23.400;2023-07-09T06:05:49;95482.50;;;21.22;56.81
22651;BME280;11492;42.646;23.400;2023-07-09T06:08:16;95490.25;;;21.40;57.09
22651;BME280;11492;42.646;23.400;2023-07-09T06:10:53;95501.91;;;21.44;54.19
22651;BME280;11492;42.646;23.400;2023-07-09T06:13:20;95502.34;;;21.41;53.99
22651;BME280;11492;42.646;23.400;2023-07-09T06:15:47;95496.84;;;21.53;53.97
22651;BME280;11492;42.646;23.400;2023-07-09T06:18:12;95494.78;;;21.55;52.42
22651;BME280;11492;42.646;23.400;2023-07-09T06:20:38;95475.22;;;21.51;53.28
22651;BME280;11492;42.646;23.400;2023-07-09T06:23:04;95493.22;;;21.71;52.59
22651;BME280;11492;42.646;23.400;2023-07-09T06:25:29;95489.91;;;21.75;52.80
22651;BME280;11492;42.646;23.400;2023-07-09T06:27:54;95492.63;;;21.80;53.16
22651;BME280;11492;42.646;23.400;2023-07-09T06:30:20;95488.03;;;21.87;53.03
22651;BME280;11492;42.646;23.400;2023-07-09T06:32:45;95487.47;;;21.85;51.90
22651;BME280;11492;42.646;23.400;2023-07-09T06:35:11;95487.75;;;21.99;51.98
22651;BME280;11492;42.646;23.400;2023-07-09T06:37:36;95490.03;;;22.07;51.54
22651;BME280;11492;42.646;23.400;2023-07-09T06:40:02;95490.66;;;22.14;51.72
22651;BME280;11492;42.646;23.400;2023-07-09T06:42:30;95495.63;;;22.11;51.33
22651;BME280;11492;42.646;23.400;2023-07-09T06:44:57;95489.06;;;22.13;51.83
22651;BME280;11492;42.646;23.400;2023-07-09T06:47:23;95484.13;;;22.17;51.83
22651;BME280;11492;42.646;23.400;2023-07-09T06:49:48;95478.09;;;22.32;52.25
22651;BME280;11492;42.646;23.400;2023-07-09T06:52:13;95483.69;;;22.36;51.72
22651;BME280;11492;42.646;23.400;2023-07-09T06:54:39;95481.69;;;22.43;51.85
22651;BME280;11492;42.646;23.400;2023-07-09T06:57:04;95477.47;;;22.42;51.63
22651;BME280;11492;42.646;23.400;2023-07-09T06:59:30;95480.81;;;22.37;51.00
22651;BME280;11492;42.646;23.400;2023-07-09T07:01:55;95479.38;;;22.46;50.18
22651;BME280;11492;42.646;23.400;2023-07-09T07:04:21;95478.59;;;22.62;50.12
22651;BME280;11492;42.646;23.400;2023-07-09T07:06:46;95474.38;;;22.77;49.73
22651;BME280;11492;42.646;23.400;2023-07-09T07:09:11;95476.03;;;22.83;49.40
22651;BME280;11492;42.646;23.400;2023-07-09T07:11:37;95491.03;;;22.99;48.61
22651;BME280;11492;42.646;23.400;2023-07-09T07:14:02;95484.16;;;22.98;48.49
22651;BME280;11492;42.646;23.400;2023-07-09T07:16:28;95472.66;;;23.03;48.17
22651;BME280;11492;42.646;23.400;2023-07-09T07:18:53;95481.28;;;22.99;47.16
22651;BME280;11492;42.646;23.400;2023-07-09T07:21:18;95476.03;;;22.83;47.38
22651;BME280;11492;42.646;23.400;2023-07-09T07:23:44;95477.72;;;22.89;47.09
22651;BME280;11492;42.646;23.400;2023-07-09T07:26:09;95475.28;;;23.03;47.72
22651;BME280;11492;42.646;23.400;2023-07-09T07:28:35;95470.09;;;23.08;46.43
22651;BME280;11492;42.646;23.400;2023-07-09T07:31:05;95468.94;;;23.21;47.61
22651;BME280;11492;42.646;23.400;2023-07-09T07:33:32;95462.88;;;23.20;47.49
22651;BME280;11492;42.646;23.400;2023-07-09T07:35:58;95457.72;;;23.30;48.08
22651;BME280;11492;42.646;23.400;2023-07-09T07:38:23;95458.00;;;23.33;46.74
22651;BME280;11492;42.646;23.400;2023-07-09T07:40:49;95458.34;;;23.37;46.98
22651;BME280;11492;42.646;23.400;2023-07-09T07:43:14;95465.97;;;23.54;46.38
22651;BME280;11492;42.646;23.400;2023-07-09T07:45:41;95452.66;;;23.66;44.55
22651;BME280;11492;42.646;23.400;2023-07-09T07:48:06;95448.56;;;23.79;44.45
22651;BME280;11492;42.646;23.400;2023-07-09T07:50:32;95457.75;;;23.98;44.54
22651;BME280;11492;42.646;23.400;2023-07-09T07:52:57;95466.03;;;24.06;44.36
22651;BME280;11492;42.646;23.400;2023-07-09T07:55:23;95458.38;;;23.84;43.79
22651;BME280;11492;42.646;23.400;2023-07-09T08:00:14;95464.31;;;24.17;44.46
22651;BME280;11492;42.646;23.400;2023-07-09T08:02:40;95467.34;;;24.30;43.31
22651;BME280;11492;42.646;23.400;2023-07-09T08:05:06;95465.19;;;24.89;42.59
22651;BME280;11492;42.646;23.400;2023-07-09T08:07:31;95455.56;;;25.59;41.77
22651;BME280;11492;42.646;23.400;2023-07-09T08:09:57;95450.44;;;26.18;39.98
22651;BME280;11492;42.646;23.400;2023-07-09T08:12:22;95437.53;;;26.76;39.97
22651;BME280;11492;42.646;23.400;2023-07-09T08:14:47;95436.59;;;27.44;39.36
22651;BME280;11492;42.646;23.400;2023-07-09T08:17:13;95434.53;;;27.93;37.43
22651;BME280;11492;42.646;23.400;2023-07-09T08:19:51;95436.69;;;28.29;36.67
22651;BME280;11492;42.646;23.400;2023-07-09T08:22:18;95439.31;;;28.72;36.23
22651;BME280;11492;42.646;23.400;2023-07-09T08:24:46;95435.75;;;28.81;35.87
22651;BME280;11492;42.646;23.400;2023-07-09T08:27:11;95433.56;;;28.60;35.55
22651;BME280;11492;42.646;23.400;2023-07-09T08:29:37;95426.13;;;28.62;36.39
22651;BME280;11492;42.646;23.400;2023-07-09T08:32:03;95435.84;;;29.04;37.01
22651;BME280;11492;42.646;23.400;2023-07-09T08:34:29;95437.41;;;29.33;36.31
22651;BME280;11492;42.646;23.400;2023-07-09T08:36:54;95439.56;;;29.03;35.30
22651;BME280;11492;42.646;23.400;2023-07-09T08:39:20;95439.94;;;29.43;34.75
22651;BME280;11492;42.646;23.400;2023-07-09T08:41:54;95437.03;;;29.67;34.08
22651;BME280;11492;42.646;23.400;2023-07-09T08:44:41;95422.00;;;29.30;34.58
22651;BME280;11492;42.646;23.400;2023-07-09T08:47:59;95438.13;;;29.66;34.72
22651;BME280;11492;42.646;23.400;2023-07-09T08:50:16;95435.97;;;30.09;33.94
22651;BME280;11492;42.646;23.400;2023-07-09T08:52:45;95438.47;;;30.37;34.53
22651;BME280;11492;42.646;23.400;2023-07-09T08:55:18;95414.56;;;30.82;32.87
22651;BME280;11492;42.646;23.400;2023-07-09T08:57:50;95433.09;;;30.60;32.77
22651;BME280;11492;42.646;23.400;2023-07-09T09:02:54;95438.13;;;30.08;35.05
22651;BME280;11492;42.646;23.400;2023-07-09T09:05:22;95433.59;;;30.08;35.28
22651;BME280;11492;42.646;23.400;2023-07-09T09:07:57;95425.28;;;29.91;35.32
22651;BME280;11492;42.646;23.400;2023-07-09T09:10:48;95432.97;;;29.93;35.20
22651;BME280;11492;42.646;23.400;2023-07-09T09:13:20;95433.91;;;30.02;35.12
22651;BME280;11492;42.646;23.400;2023-07-09T09:15:49;95435.03;;;29.55;36.10
22651;BME280;11492;42.646;23.400;2023-07-09T09:20:41;95423.66;;;29.90;35.70
22651;BME280;11492;42.646;23.400;2023-07-09T09:25:33;95431.66;;;29.90;35.83
22651;BME280;11492;42.646;23.400;2023-07-09T09:28:01;95410.47;;;29.11;36.91
22651;BME280;11492;42.646;23.400;2023-07-09T09:30:27;95428.63;;;29.32;37.21
22651;BME280;11492;42.646;23.400;2023-07-09T09:32:56;95427.63;;;29.52;37.25
22651;BME280;11492;42.646;23.400;2023-07-09T09:35:34;95420.69;;;29.74;36.56
22651;BME280;11492;42.646;23.400;2023-07-09T09:38:01;95425.34;;;30.41;35.51
22651;BME280;11492;42.646;23.400;2023-07-09T09:40:29;95419.50;;;30.75;35.08
22651;BME280;11492;42.646;23.400;2023-07-09T09:42:58;95412.03;;;31.04;35.78
22651;BME280;11492;42.646;23.400;2023-07-09T09:45:34;95424.00;;;30.61;33.81
22651;BME280;11492;42.646;23.400;2023-07-09T09:48:01;95421.72;;;29.55;35.52
22651;BME280;11492;42.646;23.400;2023-07-09T09:50:31;95414.63;;;30.09;35.64
22651;BME280;11492;42.646;23.400;2023-07-09T09:52:59;95412.25;;;30.08;34.09
22651;BME280;11492;42.646;23.400;2023-07-09T09:55:29;95415.19;;;30.07;35.50
22651;BME280;11492;42.646;23.400;2023-07-09T09:57:56;95403.34;;;30.17;34.61
22651;BME280;11492;42.646;23.400;2023-07-09T10:00:23;95416.34;;;30.37;33.79
22651;BME280;11492;42.646;23.400;2023-07-09T10:02:50;95410.19;;;30.55;35.56
22651;BME280;11492;42.646;23.400;2023-07-09T10:05:16;95409.97;;;30.51;33.41
22651;BME280;11492;42.646;23.400;2023-07-09T10:08:00;95395.94;;;30.64;34.58
22651;BME280;11492;42.646;23.400;2023-07-09T10:10:30;95408.63;;;30.54;35.09
22651;BME280;11492;42.646;23.400;2023-07-09T10:24:47;95408.97;;;30.65;34.68
22651;BME280;11492;42.646;23.400;2023-07-09T10:26:52;95388.94;;;31.12;33.04
22651;BME280;11492;42.646;23.400;2023-07-09T10:34:57;95390.34;;;31.50;32.20
22651;BME280;11492;42.646;23.400;2023-07-09T10:37:45;95393.41;;;31.83;31.54
22651;BME280;11492;42.646;23.400;2023-07-09T10:40:24;95397.00;;;31.65;32.73
22651;BME280;11492;42.646;23.400;2023-07-09T10:42:54;95390.63;;;31.35;31.93
22651;BME280;11492;42.646;23.400;2023-07-09T10:45:29;95384.59;;;31.30;31.85
22651;BME280;11492;42.646;23.400;2023-07-09T10:48:04;95388.72;;;31.62;32.56
22651;BME280;11492;42.646;23.400;2023-07-09T10:50:37;95385.78;;;31.50;31.34
22651;BME280;11492;42.646;23.400;2023-07-09T10:53:26;95372.34;;;31.68;32.50
22651;BME280;11492;42.646;23.400;2023-07-09T10:56:01;95387.31;;;32.17;30.11
22651;BME280;11492;42.646;23.400;2023-07-09T11:01:41;95383.56;;;32.05;30.47
22651;BME280;11492;42.646;23.400;2023-07-09T11:04:24;95383.63;;;31.52;30.48
22651;BME280;11492;42.646;23.400;2023-07-09T11:06:53;95383.13;;;31.63;30.76
22651;BME280;11492;42.646;23.400;2023-07-09T11:09:34;95381.31;;;31.72;29.35
22651;BME280;11492;42.646;23.400;2023-07-09T11:12:07;95374.25;;;32.16;30.85
22651;BME280;11492;42.646;23.400;2023-07-09T11:14:58;95374.28;;;31.89;29.36
22651;BME280;11492;42.646;23.400;2023-07-09T11:17:26;95376.53;;;30.90;30.81
22651;BME280;11492;42.646;23.400;2023-07-09T11:19:59;95378.66;;;31.46;30.46
22651;BME280;11492;42.646;23.400;2023-07-09T11:22:39;95373.03;;;31.34;30.76
22651;BME280;11492;42.646;23.400;2023-07-09T11:25:15;95375.88;;;31.77;29.99
22651;BME280;11492;42.646;23.400;2023-07-09T11:27:54;95377.66;;;32.30;31.22
22651;BME280;11492;42.646;23.400;2023-07-09T11:30:28;95365.63;;;32.06;29.33
22651;BME280;11492;42.646;23.400;2023-07-09T11:33:01;95373.41;;;31.41;28.73
22651;BME280;11492;42.646;23.400;2023-07-09T11:35:28;95374.13;;;31.33;30.49
22651;BME280;11492;42.646;23.400;2023-07-09T11:37:54;95381.31;;;31.46;30.66
22651;BME280;11492;42.646;23.400;2023-07-09T11:40:21;95372.34;;;31.29;29.53
22651;BME280;11492;42.646;23.400;2023-07-09T11:42:50;95360.06;;;31.28;30.22
22651;BME280;11492;42.646;23.400;2023-07-09T11:45:19;95360.34;;;31.53;31.57
22651;BME280;11492;42.646;23.400;2023-07-09T11:50:45;95358.03;;;31.86;29.99
22651;BME280;11492;42.646;23.400;2023-07-09T11:55:49;95349.66;;;31.53;29.62
22651;BME280;11492;42.646;23.400;2023-07-09T11:58:16;95356.19;;;31.60;30.79
22651;BME280;11492;42.646;23.400;2023-07-09T12:00:55;95357.75;;;31.61;31.63
22651;BME280;11492;42.646;23.400;2023-07-09T12:03:31;95355.69;;;31.45;30.50
22651;BME280;11492;42.646;23.400;2023-07-09T12:06:07;95345.47;;;30.94;31.59
22651;BME280;11492;42.646;23.400;2023-07-09T12:08:40;95344.31;;;31.53;32.02
22651;BME280;11492;42.646;23.400;2023-07-09T12:11:42;95343.75;;;32.04;31.58
22651;BME280;11492;42.646;23.400;2023-07-09T12:14:15;95345.50;;;32.64;30.99
22651;BME280;11492;42.646;23.400;2023-07-09T12:16:43;95349.75;;;32.87;29.16
22651;BME280;11492;42.646;23.400;2023-07-09T12:19:13;95348.53;;;32.71;29.89
22651;BME280;11492;42.646;23.400;2023-07-09T12:21:43;95344.88;;;31.89;29.79
22651;BME280;11492;42.646;23.400;2023-07-09T12:24:19;95342.25;;;31.98;30.42
22651;BME280;11492;42.646;23.400;2023-07-09T12:27:00;95335.41;;;32.05;31.24
22651;BME280;11492;42.646;23.400;2023-07-09T12:29:30;95336.34;;;32.44;31.34
22651;BME280;11492;42.646;23.400;2023-07-09T12:31:57;95338.97;;;32.79;30.41
22651;BME280;11492;42.646;23.400;2023-07-09T12:34:24;95330.84;;;32.92;29.65
22651;BME280;11492;42.646;23.400;2023-07-09T12:36:51;95337.72;;;32.76;30.21
22651;BME280;11492;42.646;23.400;2023-07-09T12:39:24;95342.25;;;31.63;30.14
22651;BME280;11492;42.646;23.400;2023-07-09T12:41:51;95327.06;;;30.79;31.26
22651;BME280;11492;42.646;23.400;2023-07-09T12:44:21;95329.38;;;30.54;32.48
22651;BME280;11492;42.646;23.400;2023-07-09T12:46:49;95316.38;;;30.66;32.02
22651;BME280;11492;42.646;23.400;2023-07-09T12:49:24;95313.53;;;30.76;33.01
22651;BME280;11492;42.646;23.400;2023-07-09T12:51:54;95314.81;;;30.78;32.46
22651;BME280;11492;42.646;23.400;2023-07-09T12:54:20;95311.03;;;30.79;32.53
22651;BME280;11492;42.646;23.400;2023-07-09T12:56:47;95307.81;;;30.95;33.71
22651;BME280;11492;42.646;23.400;2023-07-09T12:59:18;95313.97;;;31.22;32.21
22651;BME280;11492;42.646;23.400;2023-07-09T13:02:30;95319.09;;;31.45;31.62
22651;BME280;11492;42.646;23.400;2023-07-09T13:04:38;95312.72;;;30.62;31.85
22651;BME280;11492;42.646;23.400;2023-07-09T13:07:04;95313.31;;;30.41;32.89
22651;BME280;11492;42.646;23.400;2023-07-09T13:09:30;95316.91;;;30.81;33.23
22651;BME280;11492;42.646;23.400;2023-07-09T13:11:57;95312.34;;;31.08;33.59
22651;BME280;11492;42.646;23.400;2023-07-09T13:14:28;95315.94;;;31.30;33.27
22651;BME280;11492;42.646;23.400;2023-07-09T13:17:09;95306.25;;;30.50;32.33
22651;BME280;11492;42.646;23.400;2023-07-09T13:19:35;95318.97;;;30.53;33.86
22651;BME280;11492;42.646;23.400;2023-07-09T13:22:01;95307.97;;;30.72;33.70
22651;BME280;11492;42.646;23.400;2023-07-09T13:24:30;95311.34;;;30.64;32.54
22651;BME280;11492;42.646;23.400;2023-07-09T13:26:58;95318.56;;;30.46;34.08
22651;BME280;11492;42.646;23.400;2023-07-09T13:29:25;95319.44;;;30.59;33.89
22651;BME280;11492;42.646;23.400;2023-07-09T13:31:50;95313.00;;;30.60;34.04
22651;BME280;11492;42.646;23.400;2023-07-09T13:34:26;95311.03;;;30.79;34.31